sensor_id;sensor_type;location;lat;lon;timestamp;temperature;humidity
29539;DHT22;16482;51.046;4.498;2023-05-21T00:01:28;24.40;37.80
29539;DHT22;16482;51.046;4.498;2023-05-21T00:03:54;24.40;37.80
29539;DHT22;16482;51.046;4.498;2023-05-21T00:06:27;24.30;37.80
29539;DHT22;16482;51.046;4.498;2023-05-21T00:08:56;24.30;37.70
29539;DHT22;16482;51.046;4.498;2023-05-21T00:11:31;24.30;37.80
29539;DHT22;16482;51.046;4.498;2023-05-21T00:13:57;24.40;37.80
29539;DHT22;16482;51.046;4.498;2023-05-21T00:16:24;24.30;37.70
29539;DHT22;16482;51.046;4.498;2023-05-21T00:18:57;24.30;38.30
29539;DHT22;16482;51.046;4.498;2023-05-21T00:21:25;24.40;37.80
29539;DHT22;16482;51.046;4.498;2023-05-21T00:23:56;24.40;37.80
29539;DHT22;16482;51.046;4.498;2023-05-21T00:26:25;24.40;37.80
29539;DHT22;16482;51.046;4.498;2023-05-21T00:28:59;24.30;37.80
29539;DHT22;16482;51.046;4.498;2023-05-21T00:31:25;24.40;37.70
29539;DHT22;16482;51.046;4.498;2023-05-21T00:34:00;24.40;37.80
29539;DHT22;16482;51.046;4.498;2023-05-21T00:36:26;24.40;37.80
29539;DHT22;16482;51.046;4.498;2023-05-21T00:38:59;24.30;37.70
29539;DHT22;16482;51.046;4.498;2023-05-21T00:41:26;24.40;37.80
29539;DHT22;16482;51.046;4.498;2023-05-21T00:43:57;24.30;37.80
29539;DHT22;16482;51.046;4.498;2023-05-21T00:46:27;24.30;37.80
29539;DHT22;16482;51.046;4.498;2023-05-21T00:48:55;24.30;37.70
29539;DHT22;16482;51.046;4.498;2023-05-21T00:51:25;24.30;37.80
29539;DHT22;16482;51.046;4.498;2023-05-21T00:53:57;24.30;37.70
29539;DHT22;16482;51.046;4.498;2023-05-21T00:56:26;24.30;37.70
29539;DHT22;16482;51.046;4.498;2023-05-21T00:58:56;24.30;37.80
29539;DHT22;16482;51.046;4.498;2023-05-21T01:01:28;24.30;37.70
29539;DHT22;16482;51.046;4.498;2023-05-21T01:04:00;24.30;37.70
29539;DHT22;16482;51.046;4.498;2023-05-21T01:06:26;24.30;37.80
29539;DHT22;16482;51.046;4.498;2023-05-21T01:08:56;24.30;37.80
29539;DHT22;16482;51.046;4.498;2023-05-21T01:11:36;24.30;37.70
29539;DHT22;16482;51.046;4.498;2023-05-21T01:14:02;24.30;37.70
29539;DHT22;16482;51.046;4.498;2023-05-21T01:16:29;24.30;37.80
29539;DHT22;16482;51.046;4.498;2023-05-21T01:18:56;24.30;37.70
29539;DHT22;16482;51.046;4.498;2023-05-21T01:21:24;24.30;37.70
29539;DHT22;16482;51.046;4.498;2023-05-21T01:23:55;24.30;37.70
29539;DHT22;16482;51.046;4.498;2023-05-21T01:26:23;24.30;37.70
29539;DHT22;16482;51.046;4.498;2023-05-21T01:28:56;24.30;37.80
29539;DHT22;16482;51.046;4.498;2023-05-21T01:31:26;24.30;37.70
29539;DHT22;16482;51.046;4.498;2023-05-21T01:33:58;24.30;37.70
29539;DHT22;16482;51.046;4.498;2023-05-21T01:36:30;24.30;37.70
29539;DHT22;16482;51.046;4.498;2023-05-21T01:39:22;24.30;37.70
29539;DHT22;16482;51.046;4.498;2023-05-21T01:41:52;24.30;37.60
29539;DHT22;16482;51.046;4.498;2023-05-21T01:44:19;24.30;37.70
29539;DHT22;16482;51.046;4.498;2023-05-21T01:46:46;24.30;37.70
29539;DHT22;16482;51.046;4.498;2023-05-21T01:49:12;24.30;37.70
29539;DHT22;16482;51.046;4.498;2023-05-21T01:51:39;24.30;37.70
29539;DHT22;16482;51.046;4.498;2023-05-21T01:54:05;24.30;37.70
29539;DHT22;16482;51.046;4.498;2023-05-21T01:56:31;24.30;37.70
29539;DHT22;16482;51.046;4.498;2023-05-21T01:58:58;24.30;37.70
29539;DHT22;16482;51.046;4.498;2023-05-21T02:01:25;24.30;37.70
29539;DHT22;16482;51.046;4.498;2023-05-21T02:03:51;24.20;37.60
29539;DHT22;16482;51.046;4.498;2023-05-21T02:06:25;24.20;37.70
29539;DHT22;16482;51.046;4.498;2023-05-21T02:08:54;24.30;37.70
29539;DHT22;16482;51.046;4.498;2023-05-21T02:11:27;24.30;37.70
29539;DHT22;16482;51.046;4.498;2023-05-21T02:13:56;24.30;37.70
29539;DHT22;16482;51.046;4.498;2023-05-21T02:16:24;24.30;37.80
29539;DHT22;16482;51.046;4.498;2023-05-21T02:18:53;24.30;37.70
29539;DHT22;16482;51.046;4.498;2023-05-21T02:21:29;24.30;37.70
29539;DHT22;16482;51.046;4.498;2023-05-21T02:23:55;24.30;37.70
29539;DHT22;16482;51.046;4.498;2023-05-21T02:26:24;24.30;37.70
29539;DHT22;16482;51.046;4.498;2023-05-21T02:28:54;24.30;37.80
29539;DHT22;16482;51.046;4.498;2023-05-21T02:31:22;24.30;37.80
29539;DHT22;16482;51.046;4.498;2023-05-21T02:33:57;24.20;37.70
29539;DHT22;16482;51.046;4.498;2023-05-21T02:36:23;24.30;38.40
29539;DHT22;16482;51.046;4.498;2023-05-21T02:38:57;24.20;37.70
29539;DHT22;16482;51.046;4.498;2023-05-21T02:41:25;24.30;37.80
29539;DHT22;16482;51.046;4.498;2023-05-21T02:43:59;24.20;37.70
29539;DHT22;16482;51.046;4.498;2023-05-21T02:46:25;24.30;37.80
29539;DHT22;16482;51.046;4.498;2023-05-21T02:48:59;24.20;37.80
29539;DHT22;16482;51.046;4.498;2023-05-21T02:51:25;24.30;37.80
29539;DHT22;16482;51.046;4.498;2023-05-21T02:53:57;24.20;37.80
29539;DHT22;16482;51.046;4.498;2023-05-21T02:56:25;24.20;37.80
29539;DHT22;16482;51.046;4.498;2023-05-21T02:58:54;24.20;37.80
29539;DHT22;16482;51.046;4.498;2023-05-21T03:01:27;24.20;37.80
29539;DHT22;16482;51.046;4.498;2023-05-21T03:03:53;24.30;37.90
29539;DHT22;16482;51.046;4.498;2023-05-21T03:06:27;24.20;37.80
29539;DHT22;16482;51.046;4.498;2023-05-21T03:09:00;24.20;37.80
29539;DHT22;16482;51.046;4.498;2023-05-21T03:11:26;24.20;37.80
29539;DHT22;16482;51.046;4.498;2023-05-21T03:14:01;24.20;37.90
29539;DHT22;16482;51.046;4.498;2023-05-21T03:16:27;24.20;37.80
29539;DHT22;16482;51.046;4.498;2023-05-21T03:18:56;24.10;37.90
29539;DHT22;16482;51.046;4.498;2023-05-21T03:21:31;24.20;37.80
29539;DHT22;16482;51.046;4.498;2023-05-21T03:23:58;24.20;37.80
29539;DHT22;16482;51.046;4.498;2023-05-21T03:26:28;24.30;37.90
29539;DHT22;16482;51.046;4.498;2023-05-21T03:28:56;24.20;37.80
29539;DHT22;16482;51.046;4.498;2023-05-21T03:31:23;24.20;37.80
29539;DHT22;16482;51.046;4.498;2023-05-21T03:33:57;24.20;37.90
29539;DHT22;16482;51.046;4.498;2023-05-21T03:36:26;24.20;37.90
29539;DHT22;16482;51.046;4.498;2023-05-21T03:38:55;24.20;37.90
29539;DHT22;16482;51.046;4.498;2023-05-21T03:41:24;24.20;37.90
29539;DHT22;16482;51.046;4.498;2023-05-21T03:43:56;24.20;38.00
29539;DHT22;16482;51.046;4.498;2023-05-21T03:46:26;24.20;38.00
29539;DHT22;16482;51.046;4.498;2023-05-21T03:48:55;24.20;38.00
29539;DHT22;16482;51.046;4.498;2023-05-21T03:51:25;24.20;37.90
29539;DHT22;16482;51.046;4.498;2023-05-21T03:54:01;24.20;38.00
29539;DHT22;16482;51.046;4.498;2023-05-21T03:56:26;24.20;38.00
29539;DHT22;16482;51.046;4.498;2023-05-21T03:58:52;24.20;38.00
29539;DHT22;16482;51.046;4.498;2023-05-21T04:01:26;24.20;38.00
29539;DHT22;16482;51.046;4.498;2023-05-21T04:03:55;24.20;38.00
29539;DHT22;16482;51.046;4.498;2023-05-21T04:06:24;24.20;38.00
29539;DHT22;16482;51.046;4.498;2023-05-21T04:08:59;24.20;38.00
29539;DHT22;16482;51.046;4.498;2023-05-21T04:11:25;24.20;38.00
29539;DHT22;16482;51.046;4.498;2023-05-21T04:13:54;24.10;38.00
29539;DHT22;16482;51.046;4.498;2023-05-21T04:16:23;24.20;38.10
29539;DHT22;16482;51.046;4.498;2023-05-21T04:18:55;24.20;38.10
29539;DHT22;16482;51.046;4.498;2023-05-21T04:21:28;24.20;38.10
29539;DHT22;16482;51.046;4.498;2023-05-21T04:23:56;24.20;38.10
29539;DHT22;16482;51.046;4.498;2023-05-21T04:26:25;24.20;38.10
29539;DHT22;16482;51.046;4.498;2023-05-21T04:28:55;24.20;38.10
29539;DHT22;16482;51.046;4.498;2023-05-21T04:31:26;24.20;38.20
29539;DHT22;16482;51.046;4.498;2023-05-21T04:33:55;24.20;38.10
29539;DHT22;16482;51.046;4.498;2023-05-21T04:36:29;24.20;38.10
29539;DHT22;16482;51.046;4.498;2023-05-21T04:38:55;24.20;38.10
29539;DHT22;16482;51.046;4.498;2023-05-21T04:41:28;24.10;38.20
29539;DHT22;16482;51.046;4.498;2023-05-21T04:43:54;24.20;38.30
29539;DHT22;16482;51.046;4.498;2023-05-21T04:46:32;24.20;38.40
29539;DHT22;16482;51.046;4.498;2023-05-21T04:49:01;24.20;38.60
29539;DHT22;16482;51.046;4.498;2023-05-21T04:51:28;24.20;38.70
29539;DHT22;16482;51.046;4.498;2023-05-21T04:53:56;24.20;38.70
29539;DHT22;16482;51.046;4.498;2023-05-21T04:56:30;24.20;38.80
29539;DHT22;16482;51.046;4.498;2023-05-21T04:58:56;24.20;38.70
29539;DHT22;16482;51.046;4.498;2023-05-21T05:01:25;24.20;38.80
29539;DHT22;16482;51.046;4.498;2023-05-21T05:03:56;24.20;39.00
29539;DHT22;16482;51.046;4.498;2023-05-21T05:06:25;24.20;39.00
29539;DHT22;16482;51.046;4.498;2023-05-21T05:09:00;24.20;39.00
29539;DHT22;16482;51.046;4.498;2023-05-21T05:11:26;24.30;39.00
29539;DHT22;16482;51.046;4.498;2023-05-21T05:13:55;24.20;39.80
29539;DHT22;16482;51.046;4.498;2023-05-21T05:16:26;24.20;39.10
29539;DHT22;16482;51.046;4.498;2023-05-21T05:18:54;24.20;39.30
29539;DHT22;16482;51.046;4.498;2023-05-21T05:21:27;24.20;39.20
29539;DHT22;16482;51.046;4.498;2023-05-21T05:23:56;24.20;39.20
29539;DHT22;16482;51.046;4.498;2023-05-21T05:26:29;24.20;39.50
29539;DHT22;16482;51.046;4.498;2023-05-21T05:28:55;24.20;39.40
29539;DHT22;16482;51.046;4.498;2023-05-21T05:31:28;24.20;39.30
29539;DHT22;16482;51.046;4.498;2023-05-21T05:33:57;24.20;39.30
29539;DHT22;16482;51.046;4.498;2023-05-21T05:36:25;24.20;39.40
29539;DHT22;16482;51.046;4.498;2023-05-21T05:39:00;24.20;39.40
29539;DHT22;16482;51.046;4.498;2023-05-21T05:41:26;24.20;39.30
29539;DHT22;16482;51.046;4.498;2023-05-21T05:43:55;24.20;39.40
29539;DHT22;16482;51.046;4.498;2023-05-21T05:46:28;24.20;39.40
29539;DHT22;16482;51.046;4.498;2023-05-21T05:48:54;24.20;39.40
29539;DHT22;16482;51.046;4.498;2023-05-21T05:51:22;24.20;39.40
29539;DHT22;16482;51.046;4.498;2023-05-21T05:53:57;24.20;39.40
29539;DHT22;16482;51.046;4.498;2023-05-21T05:56:23;24.20;39.40
29539;DHT22;16482;51.046;4.498;2023-05-21T05:58:58;24.20;39.50
29539;DHT22;16482;51.046;4.498;2023-05-21T06:01:24;24.20;39.40
29539;DHT22;16482;51.046;4.498;2023-05-21T06:03:58;24.20;39.40
29539;DHT22;16482;51.046;4.498;2023-05-21T06:06:27;24.20;39.40
29539;DHT22;16482;51.046;4.498;2023-05-21T06:08:55;24.20;39.50
29539;DHT22;16482;51.046;4.498;2023-05-21T06:11:30;24.10;39.40
29539;DHT22;16482;51.046;4.498;2023-05-21T06:13:56;24.10;39.40
29539;DHT22;16482;51.046;4.498;2023-05-21T06:16:32;24.10;39.50
29539;DHT22;16482;51.046;4.498;2023-05-21T06:18:58;24.20;39.50
29539;DHT22;16482;51.046;4.498;2023-05-21T06:21:24;24.20;39.50
29539;DHT22;16482;51.046;4.498;2023-05-21T06:23:56;24.10;39.60
29539;DHT22;16482;51.046;4.498;2023-05-21T06:26:27;24.10;39.50
29539;DHT22;16482;51.046;4.498;2023-05-21T06:29:00;24.10;39.90
29539;DHT22;16482;51.046;4.498;2023-05-21T06:31:28;24.20;39.60
29539;DHT22;16482;51.046;4.498;2023-05-21T06:33:57;24.10;39.60
29539;DHT22;16482;51.046;4.498;2023-05-21T06:36:27;24.10;39.60
29539;DHT22;16482;51.046;4.498;2023-05-21T06:38:57;24.20;39.70
29539;DHT22;16482;51.046;4.498;2023-05-21T06:41:23;24.20;39.70
29539;DHT22;16482;51.046;4.498;2023-05-21T06:43:57;24.10;39.70
29539;DHT22;16482;51.046;4.498;2023-05-21T06:46:32;24.20;39.70
29539;DHT22;16482;51.046;4.498;2023-05-21T06:49:00;24.20;39.70
29539;DHT22;16482;51.046;4.498;2023-05-21T06:51:26;24.20;39.70
29539;DHT22;16482;51.046;4.498;2023-05-21T06:53:55;24.20;39.70
29539;DHT22;16482;51.046;4.498;2023-05-21T06:56:30;24.20;39.70
29539;DHT22;16482;51.046;4.498;2023-05-21T06:58:56;24.30;39.70
29539;DHT22;16482;51.046;4.498;2023-05-21T07:01:31;24.30;39.70
29539;DHT22;16482;51.046;4.498;2023-05-21T07:03:58;24.30;39.70
29539;DHT22;16482;51.046;4.498;2023-05-21T07:06:27;24.30;39.80
29539;DHT22;16482;51.046;4.498;2023-05-21T07:09:01;24.30;39.80
29539;DHT22;16482;51.046;4.498;2023-05-21T07:11:30;24.30;39.80
29539;DHT22;16482;51.046;4.498;2023-05-21T07:13:57;24.30;39.90
29539;DHT22;16482;51.046;4.498;2023-05-21T07:16:27;24.30;40.00
29539;DHT22;16482;51.046;4.498;2023-05-21T07:18:56;24.30;40.10
29539;DHT22;16482;51.046;4.498;2023-05-21T07:21:31;24.40;40.00
29539;DHT22;16482;51.046;4.498;2023-05-21T07:23:57;24.40;39.90
29539;DHT22;16482;51.046;4.498;2023-05-21T07:26:25;24.40;40.00
29539;DHT22;16482;51.046;4.498;2023-05-21T07:29:00;24.40;40.10
29539;DHT22;16482;51.046;4.498;2023-05-21T07:31:26;24.40;40.20
29539;DHT22;16482;51.046;4.498;2023-05-21T07:33:55;24.40;40.10
29539;DHT22;16482;51.046;4.498;2023-05-21T07:36:30;24.50;40.30
29539;DHT22;16482;51.046;4.498;2023-05-21T07:38:58;24.50;40.30
29539;DHT22;16482;51.046;4.498;2023-05-21T07:41:31;24.50;40.40
29539;DHT22;16482;51.046;4.498;2023-05-21T07:43:57;24.50;40.30
29539;DHT22;16482;51.046;4.498;2023-05-21T07:46:25;24.50;40.30
29539;DHT22;16482;51.046;4.498;2023-05-21T07:48:54;24.50;40.30
29539;DHT22;16482;51.046;4.498;2023-05-21T07:51:26;24.60;40.20
29539;DHT22;16482;51.046;4.498;2023-05-21T07:53:55;24.60;40.10
29539;DHT22;16482;51.046;4.498;2023-05-21T07:56:24;24.60;40.10
29539;DHT22;16482;51.046;4.498;2023-05-21T07:58:58;24.70;40.10
29539;DHT22;16482;51.046;4.498;2023-05-21T08:01:27;24.70;40.20
29539;DHT22;16482;51.046;4.498;2023-05-21T08:04:01;24.70;40.50
29539;DHT22;16482;51.046;4.498;2023-05-21T08:06:31;24.80;40.60
29539;DHT22;16482;51.046;4.498;2023-05-21T08:08:59;24.80;40.60
29539;DHT22;16482;51.046;4.498;2023-05-21T08:11:27;24.80;40.60
29539;DHT22;16482;51.046;4.498;2023-05-21T08:13:55;24.80;40.60
29539;DHT22;16482;51.046;4.498;2023-05-21T08:16:30;24.80;40.50
29539;DHT22;16482;51.046;4.498;2023-05-21T08:18:56;24.90;40.60
29539;DHT22;16482;51.046;4.498;2023-05-21T08:21:31;24.80;40.60
29539;DHT22;16482;51.046;4.498;2023-05-21T08:23:58;24.90;40.60
29539;DHT22;16482;51.046;4.498;2023-05-21T08:26:27;24.90;40.70
29539;DHT22;16482;51.046;4.498;2023-05-21T08:28:56;25.00;40.70
29539;DHT22;16482;51.046;4.498;2023-05-21T08:31:29;25.00;40.70
29539;DHT22;16482;51.046;4.498;2023-05-21T08:33:55;25.00;40.70
29539;DHT22;16482;51.046;4.498;2023-05-21T08:36:30;25.00;40.80
29539;DHT22;16482;51.046;4.498;2023-05-21T08:38:56;25.10;40.90
29539;DHT22;16482;51.046;4.498;2023-05-21T08:41:33;25.10;40.90
29539;DHT22;16482;51.046;4.498;2023-05-21T08:44:01;25.20;41.00
29539;DHT22;16482;51.046;4.498;2023-05-21T08:46:31;25.10;41.00
29539;DHT22;16482;51.046;4.498;2023-05-21T08:48:58;25.20;40.90
29539;DHT22;16482;51.046;4.498;2023-05-21T08:51:28;25.20;41.10
29539;DHT22;16482;51.046;4.498;2023-05-21T08:53:57;25.20;41.10
29539;DHT22;16482;51.046;4.498;2023-05-21T08:56:26;25.20;41.20
29539;DHT22;16482;51.046;4.498;2023-05-21T08:58:55;25.20;41.10
29539;DHT22;16482;51.046;4.498;2023-05-21T09:01:31;25.20;41.20
29539;DHT22;16482;51.046;4.498;2023-05-21T09:04:00;25.20;41.30
29539;DHT22;16482;51.046;4.498;2023-05-21T09:06:26;25.20;41.40
29539;DHT22;16482;51.046;4.498;2023-05-21T09:09:05;25.20;41.50
29539;DHT22;16482;51.046;4.498;2023-05-21T09:11:34;25.20;41.40
29539;DHT22;16482;51.046;4.498;2023-05-21T09:14:00;25.20;41.50
29539;DHT22;16482;51.046;4.498;2023-05-21T09:16:27;25.10;41.50
29539;DHT22;16482;51.046;4.498;2023-05-21T09:18:56;25.10;41.60
29539;DHT22;16482;51.046;4.498;2023-05-21T09:21:29;25.10;41.60
29539;DHT22;16482;51.046;4.498;2023-05-21T09:23:56;25.10;41.50
29539;DHT22;16482;51.046;4.498;2023-05-21T09:26:26;25.10;41.50
29539;DHT22;16482;51.046;4.498;2023-05-21T09:29:01;25.10;41.50
29539;DHT22;16482;51.046;4.498;2023-05-21T09:31:28;25.20;41.50
29539;DHT22;16482;51.046;4.498;2023-05-21T09:33:57;25.20;41.40
29539;DHT22;16482;51.046;4.498;2023-05-21T09:36:26;25.20;41.60
29539;DHT22;16482;51.046;4.498;2023-05-21T09:38:56;25.20;41.70
29539;DHT22;16482;51.046;4.498;2023-05-21T09:41:34;25.20;41.70
29539;DHT22;16482;51.046;4.498;2023-05-21T09:44:01;25.20;41.80
29539;DHT22;16482;51.046;4.498;2023-05-21T09:46:27;25.10;42.00
29539;DHT22;16482;51.046;4.498;2023-05-21T09:49:01;25.10;42.10
29539;DHT22;16482;51.046;4.498;2023-05-21T09:51:27;25.10;42.30
29539;DHT22;16482;51.046;4.498;2023-05-21T09:54:02;25.00;42.20
29539;DHT22;16482;51.046;4.498;2023-05-21T09:56:28;25.10;42.20
29539;DHT22;16482;51.046;4.498;2023-05-21T09:59:01;25.10;42.40
29539;DHT22;16482;51.046;4.498;2023-05-21T10:01:30;25.10;42.60
29539;DHT22;16482;51.046;4.498;2023-05-21T10:04:00;25.10;42.70
29539;DHT22;16482;51.046;4.498;2023-05-21T10:06:28;25.10;42.90
29539;DHT22;16482;51.046;4.498;2023-05-21T10:08:55;25.10;42.80
29539;DHT22;16482;51.046;4.498;2023-05-21T10:11:31;25.10;42.90
29539;DHT22;16482;51.046;4.498;2023-05-21T10:14:06;25.10;43.00
29539;DHT22;16482;51.046;4.498;2023-05-21T10:16:33;25.10;43.00
29539;DHT22;16482;51.046;4.498;2023-05-21T10:18:59;25.20;43.10
29539;DHT22;16482;51.046;4.498;2023-05-21T10:21:26;25.20;43.20
29539;DHT22;16482;51.046;4.498;2023-05-21T10:23:56;25.20;43.10
29539;DHT22;16482;51.046;4.498;2023-05-21T10:26:25;25.20;43.10
29539;DHT22;16482;51.046;4.498;2023-05-21T10:29:01;25.20;43.10
29539;DHT22;16482;51.046;4.498;2023-05-21T10:31:27;25.20;43.20
29539;DHT22;16482;51.046;4.498;2023-05-21T10:34:02;25.10;43.50
29539;DHT22;16482;51.046;4.498;2023-05-21T10:36:32;25.10;43.40
29539;DHT22;16482;51.046;4.498;2023-05-21T10:38:59;25.10;43.10
29539;DHT22;16482;51.046;4.498;2023-05-21T10:41:27;25.10;43.30
29539;DHT22;16482;51.046;4.498;2023-05-21T10:44:27;25.10;43.30
29539;DHT22;16482;51.046;4.498;2023-05-21T10:50:01;25.20;43.70
29539;DHT22;16482;51.046;4.498;2023-05-21T11:00:36;25.10;43.40
29539;DHT22;16482;51.046;4.498;2023-05-21T11:03:07;25.10;43.40
29539;DHT22;16482;51.046;4.498;2023-05-21T11:05:55;25.10;43.30
29539;DHT22;16482;51.046;4.498;2023-05-21T11:08:26;25.10;43.30
29539;DHT22;16482;51.046;4.498;2023-05-21T11:10:56;25.00;43.20
29539;DHT22;16482;51.046;4.498;2023-05-21T11:13:24;25.10;43.30
29539;DHT22;16482;51.046;4.498;2023-05-21T11:21:04;25.10;43.30
29539;DHT22;16482;51.046;4.498;2023-05-21T11:26:27;25.10;43.30
29539;DHT22;16482;51.046;4.498;2023-05-21T11:31:32;25.10;43.40
29539;DHT22;16482;51.046;4.498;2023-05-21T11:34:23;25.10;43.40
29539;DHT22;16482;51.046;4.498;2023-05-21T11:40:14;25.20;43.60
29539;DHT22;16482;51.046;4.498;2023-05-21T11:42:41;25.10;43.50
29539;DHT22;16482;51.046;4.498;2023-05-21T11:45:09;25.10;43.60
29539;DHT22;16482;51.046;4.498;2023-05-21T11:47:35;25.10;43.60
29539;DHT22;16482;51.046;4.498;2023-05-21T11:50:02;25.10;43.60
29539;DHT22;16482;51.046;4.498;2023-05-21T11:52:29;25.10;43.50
29539;DHT22;16482;51.046;4.498;2023-05-21T11:54:56;25.10;43.40
29539;DHT22;16482;51.046;4.498;2023-05-21T11:57:27;25.20;43.50
29539;DHT22;16482;51.046;4.498;2023-05-21T11:59:56;25.20;43.50
29539;DHT22;16482;51.046;4.498;2023-05-21T12:02:29;25.10;43.40
29539;DHT22;16482;51.046;4.498;2023-05-21T12:04:55;25.20;43.60
29539;DHT22;16482;51.046;4.498;2023-05-21T12:07:26;25.20;43.70
29539;DHT22;16482;51.046;4.498;2023-05-21T12:09:55;25.20;43.70
29539;DHT22;16482;51.046;4.498;2023-05-21T12:12:24;25.20;43.80
29539;DHT22;16482;51.046;4.498;2023-05-21T12:14:52;25.20;44.00
29539;DHT22;16482;51.046;4.498;2023-05-21T12:17:20;25.20;44.10
29539;DHT22;16482;51.046;4.498;2023-05-21T12:19:51;25.20;43.90
29539;DHT22;16482;51.046;4.498;2023-05-21T12:22:19;25.20;44.00
29539;DHT22;16482;51.046;4.498;2023-05-21T12:24:48;25.20;44.00
29539;DHT22;16482;51.046;4.498;2023-05-21T12:27:22;25.20;44.10
29539;DHT22;16482;51.046;4.498;2023-05-21T12:29:49;25.20;44.00
29539;DHT22;16482;51.046;4.498;2023-05-21T12:32:19;25.20;43.90
29539;DHT22;16482;51.046;4.498;2023-05-21T12:34:50;25.20;44.00
29539;DHT22;16482;51.046;4.498;2023-05-21T12:37:29;25.20;44.10
29539;DHT22;16482;51.046;4.498;2023-05-21T12:40:01;25.20;44.10
29539;DHT22;16482;51.046;4.498;2023-05-21T12:42:32;25.20;44.20
29539;DHT22;16482;51.046;4.498;2023-05-21T12:45:08;25.20;44.20
29539;DHT22;16482;51.046;4.498;2023-05-21T12:47:34;25.20;44.20
29539;DHT22;16482;51.046;4.498;2023-05-21T12:50:10;25.20;44.20
29539;DHT22;16482;51.046;4.498;2023-05-21T12:52:39;25.20;44.20
29539;DHT22;16482;51.046;4.498;2023-05-21T12:55:07;25.20;44.30
29539;DHT22;16482;51.046;4.498;2023-05-21T12:57:36;25.20;44.30
29539;DHT22;16482;51.046;4.498;2023-05-21T13:00:06;25.20;44.40
29539;DHT22;16482;51.046;4.498;2023-05-21T13:02:42;25.20;44.30
29539;DHT22;16482;51.046;4.498;2023-05-21T13:05:10;25.20;44.30
29539;DHT22;16482;51.046;4.498;2023-05-21T13:07:37;25.20;44.40
29539;DHT22;16482;51.046;4.498;2023-05-21T13:10:05;25.20;44.50
29539;DHT22;16482;51.046;4.498;2023-05-21T13:12:32;25.20;44.40
29539;DHT22;16482;51.046;4.498;2023-05-21T13:15:00;25.20;44.50
29539;DHT22;16482;51.046;4.498;2023-05-21T13:17:26;25.20;44.70
29539;DHT22;16482;51.046;4.498;2023-05-21T13:22:42;25.20;44.70
29539;DHT22;16482;51.046;4.498;2023-05-21T13:25:12;25.20;44.80
29539;DHT22;16482;51.046;4.498;2023-05-21T13:27:41;25.20;44.90
29539;DHT22;16482;51.046;4.498;2023-05-21T13:30:07;25.20;44.90
29539;DHT22;16482;51.046;4.498;2023-05-21T13:32:34;25.20;45.00
29539;DHT22;16482;51.046;4.498;2023-05-21T13:35:00;25.20;45.10
29539;DHT22;16482;51.046;4.498;2023-05-21T13:37:26;25.20;45.20
29539;DHT22;16482;51.046;4.498;2023-05-21T13:39:52;25.20;45.10
29539;DHT22;16482;51.046;4.498;2023-05-21T13:42:18;25.20;45.00
29539;DHT22;16482;51.046;4.498;2023-05-21T13:44:49;25.20;45.20
29539;DHT22;16482;51.046;4.498;2023-05-21T13:47:23;25.20;45.20
29539;DHT22;16482;51.046;4.498;2023-05-21T13:49:49;25.30;45.20
29539;DHT22;16482;51.046;4.498;2023-05-21T13:52:18;25.20;45.20
29539;DHT22;16482;51.046;4.498;2023-05-21T13:54:48;25.20;45.30
29539;DHT22;16482;51.046;4.498;2023-05-21T13:57:20;25.30;45.30
29539;DHT22;16482;51.046;4.498;2023-05-21T13:59:49;25.20;45.30
29539;DHT22;16482;51.046;4.498;2023-05-21T14:02:22;25.20;45.30
29539;DHT22;16482;51.046;4.498;2023-05-21T14:04:48;25.30;45.40
29539;DHT22;16482;51.046;4.498;2023-05-21T14:07:22;25.20;45.40
29539;DHT22;16482;51.046;4.498;2023-05-21T14:09:50;25.20;45.40
29539;DHT22;16482;51.046;4.498;2023-05-21T14:12:16;25.20;45.40
29539;DHT22;16482;51.046;4.498;2023-05-21T14:14:52;25.20;45.40
29539;DHT22;16482;51.046;4.498;2023-05-21T14:17:18;25.20;45.50
29539;DHT22;16482;51.046;4.498;2023-05-21T14:19:53;25.20;45.50
29539;DHT22;16482;51.046;4.498;2023-05-21T14:22:20;25.30;45.60
29539;DHT22;16482;51.046;4.498;2023-05-21T14:24:46;25.30;45.60
29539;DHT22;16482;51.046;4.498;2023-05-21T14:27:20;25.30;45.60
29539;DHT22;16482;51.046;4.498;2023-05-21T14:29:49;25.20;45.50
29539;DHT22;16482;51.046;4.498;2023-05-21T14:32:24;25.20;45.60
29539;DHT22;16482;51.046;4.498;2023-05-21T14:34:50;25.20;45.50
29539;DHT22;16482;51.046;4.498;2023-05-21T14:37:18;25.20;45.60
29539;DHT22;16482;51.046;4.498;2023-05-21T14:39:52;25.20;46.20
29539;DHT22;16482;51.046;4.498;2023-05-21T14:42:18;25.20;45.60
29539;DHT22;16482;51.046;4.498;2023-05-21T14:44:47;25.20;45.60
29539;DHT22;16482;51.046;4.498;2023-05-21T14:47:24;25.20;45.80
29539;DHT22;16482;51.046;4.498;2023-05-21T14:49:50;25.20;45.70
29539;DHT22;16482;51.046;4.498;2023-05-21T14:52:20;25.20;45.80
29539;DHT22;16482;51.046;4.498;2023-05-21T14:54:49;25.20;45.80
29539;DHT22;16482;51.046;4.498;2023-05-21T14:57:24;25.20;45.90
29539;DHT22;16482;51.046;4.498;2023-05-21T14:59:49;25.20;45.80
29539;DHT22;16482;51.046;4.498;2023-05-21T15:02:19;25.20;45.80
29539;DHT22;16482;51.046;4.498;2023-05-21T15:04:47;25.20;45.80
29539;DHT22;16482;51.046;4.498;2023-05-21T15:07:22;25.20;45.90
29539;DHT22;16482;51.046;4.498;2023-05-21T15:09:48;25.20;45.90
29539;DHT22;16482;51.046;4.498;2023-05-21T15:12:17;25.20;45.90
29539;DHT22;16482;51.046;4.498;2023-05-21T15:14:51;25.20;45.90
29539;DHT22;16482;51.046;4.498;2023-05-21T15:17:17;25.20;45.90
29539;DHT22;16482;51.046;4.498;2023-05-21T15:19:46;25.20;46.00
29539;DHT22;16482;51.046;4.498;2023-05-21T15:22:19;25.20;46.00
29539;DHT22;16482;51.046;4.498;2023-05-21T15:24:48;25.20;46.00
29539;DHT22;16482;51.046;4.498;2023-05-21T15:27:20;25.20;46.10
29539;DHT22;16482;51.046;4.498;2023-05-21T15:29:55;25.20;46.10
29539;DHT22;16482;51.046;4.498;2023-05-21T15:32:20;25.20;46.00
29539;DHT22;16482;51.046;4.498;2023-05-21T15:34:49;25.20;46.10
29539;DHT22;16482;51.046;4.498;2023-05-21T15:37:18;25.20;46.10
29539;DHT22;16482;51.046;4.498;2023-05-21T15:39:50;25.20;46.10
29539;DHT22;16482;51.046;4.498;2023-05-21T15:42:17;25.20;46.20
29539;DHT22;16482;51.046;4.498;2023-05-21T15:44:51;25.20;46.20
29539;DHT22;16482;51.046;4.498;2023-05-21T15:47:20;25.20;46.10
29539;DHT22;16482;51.046;4.498;2023-05-21T15:49:53;25.20;46.20
29539;DHT22;16482;51.046;4.498;2023-05-21T15:52:19;25.20;46.10
29539;DHT22;16482;51.046;4.498;2023-05-21T15:54:54;25.20;46.10
29539;DHT22;16482;51.046;4.498;2023-05-21T15:57:20;25.20;46.20
29539;DHT22;16482;51.046;4.498;2023-05-21T15:59:49;25.20;46.30
29539;DHT22;16482;51.046;4.498;2023-05-21T16:02:24;25.20;46.40
29539;DHT22;16482;51.046;4.498;2023-05-21T16:04:50;25.20;46.30
29539;DHT22;16482;51.046;4.498;2023-05-21T16:07:19;25.20;46.50
29539;DHT22;16482;51.046;4.498;2023-05-21T16:09:48;25.20;46.50
29539;DHT22;16482;51.046;4.498;2023-05-21T16:12:17;25.10;46.50
29539;DHT22;16482;51.046;4.498;2023-05-21T16:14:48;25.20;46.50